YTYA weather

Tyabb Airport
Melbourne, Victoria, Australia

Public forecast

Using degrees Celsius for public forecast. Weather courtesy of forecast.io.

METAR (pilot weather report)

Closest report is Melbourne Essendon Airport, 34.8 nm (64.5 km) NNW. Retrieved 2019/03/20 03:00 UTC (37 minutes ago):

YMEN 200300Z AUTO 20009KT 9999 // BKN024 OVC028 23/17 Q1015

TAF (pilot weather forecast)

Forecast is more than 12 hours old.

Closest forecast is Avalon Airport, 36.0 nm (66.7 km) WNW. Retrieved 2019/03/19 00:00 UTC (1 day ago):

TAF YMAV 192308Z 2000/2024 17008KT 9999 -DZ FEW007 BKN012 FM200300 15012KT 9999 SCT015 BKN025 FM200500 18009KT 9999 -DZ FEW008 BKN012 TEMPO 2000/2008 9000 HZ BKN012 TEMPO 2008/2024 8000 -DZ BKN008